GRW weather

Graciosa Airport
Santa Cruz da Graciosa, Autonomous Region of Azores, Portugal

Public forecast

Using degrees Celsius for public forecast. Weather courtesy of forecast.io.

METAR (pilot weather report)

Report is more than 2 hours old.

Closest report is Horta Airport, 47.0 nm (87.1 km) SW. Retrieved 2019/08/24 20:00 UTC (5 hours ago):

LPHR 242000Z 04010KT 360V070 9999 FEW020 22/16 Q1024

TAF (pilot weather forecast)

Forecast is more than 12 hours old.

Closest forecast is Horta Airport, 47.0 nm (87.1 km) SW. Retrieved 2018/09/06 09:00 UTC (12 months ago):

TAF LPHR 060800Z 0609/0618 12010KT 9999 SCT018 SCT040 PROB30 TEMPO 0609/0618 5000 SHRA BKN015 FEW018CB BECMG 0610/0612 18010KT